createdAt,value
2022-12-11T00:00:03.450Z,95.79
2022-12-11T00:01:03.444Z,95.79
2022-12-11T00:02:03.857Z,96.00
2022-12-11T00:03:03.464Z,95.89
2022-12-11T00:04:03.420Z,95.94
2022-12-11T00:05:03.413Z,95.94
2022-12-11T00:06:03.405Z,96.15
2022-12-11T00:07:03.423Z,96.25
2022-12-11T00:08:03.422Z,96.46
2022-12-11T00:09:03.389Z,96.15
2022-12-11T00:10:03.374Z,96.25
2022-12-11T00:11:03.367Z,97.09
2022-12-11T00:12:03.359Z,97.09
2022-12-11T00:13:03.352Z,97.09
2022-12-11T00:14:03.345Z,96.92
2022-12-11T00:15:03.338Z,97.03
2022-12-11T00:16:03.327Z,97.44
2022-12-11T00:17:03.371Z,97.13
2022-12-11T00:18:03.312Z,96.92
2022-12-11T00:19:03.305Z,96.92
2022-12-11T00:20:03.297Z,96.92
2022-12-11T00:21:03.292Z,96.82
2022-12-11T00:22:03.285Z,96.92
2022-12-11T00:23:03.299Z,97.24
2022-12-11T00:24:03.269Z,97.13
2022-12-11T00:25:03.281Z,97.24
2022-12-11T00:26:03.251Z,97.13
2022-12-11T00:27:03.245Z,97.13
2022-12-11T00:28:03.240Z,97.55
2022-12-11T00:29:03.232Z,97.44
2022-12-11T00:30:03.235Z,97.75
2022-12-11T00:31:03.213Z,97.75
2022-12-11T00:32:03.280Z,97.65
2022-12-11T00:33:03.198Z,97.55
2022-12-11T00:34:03.193Z,97.75
2022-12-11T00:35:03.183Z,97.55
2022-12-11T00:36:03.175Z,97.55
2022-12-11T00:37:03.214Z,97.55
2022-12-11T00:38:03.157Z,97.65
2022-12-11T00:39:03.169Z,98.07
2022-12-11T00:40:03.143Z,97.75
2022-12-11T00:41:03.148Z,97.86
2022-12-11T00:42:03.126Z,97.86
2022-12-11T00:43:03.123Z,97.44
2022-12-11T00:44:03.115Z,97.65
2022-12-11T00:45:03.120Z,97.65
2022-12-11T00:46:03.125Z,97.86
2022-12-11T00:47:03.100Z,97.75
2022-12-11T00:48:03.082Z,97.97
2022-12-11T00:49:03.072Z,97.75
2022-12-11T00:50:03.078Z,97.75
2022-12-11T00:51:03.059Z,97.75
2022-12-11T00:52:03.059Z,97.55
2022-12-11T00:53:03.045Z,97.75
2022-12-11T00:54:03.037Z,97.44
2022-12-11T00:55:03.046Z,97.44
2022-12-11T00:56:03.022Z,97.65
2022-12-11T00:57:03.012Z,97.55
2022-12-11T00:58:03.010Z,97.65
2022-12-11T00:59:02.995Z,97.75
2022-12-11T01:00:02.989Z,97.97
2022-12-11T01:01:03.018Z,98.07
2022-12-11T01:02:02.977Z,97.55
2022-12-11T01:03:03.263Z,97.61
2022-12-11T01:04:02.957Z,97.65
2022-12-11T01:05:02.951Z,97.97
2022-12-11T01:06:02.953Z,97.65
2022-12-11T01:07:02.938Z,97.44
2022-12-11T01:08:02.969Z,97.55
2022-12-11T01:09:02.920Z,97.97
2022-12-11T01:10:02.913Z,97.92
2022-12-11T01:11:02.926Z,97.92
2022-12-11T01:12:02.910Z,97.92
2022-12-11T01:13:02.889Z,97.71
2022-12-11T01:14:02.885Z,97.92
2022-12-11T01:15:02.873Z,97.40
2022-12-11T01:16:02.867Z,97.61
2022-12-11T01:17:02.956Z,97.40
2022-12-11T01:18:02.855Z,97.30
2022-12-11T01:19:02.844Z,96.88
2022-12-11T01:20:02.840Z,96.88
2022-12-11T01:21:02.825Z,96.56
2022-12-11T01:22:02.818Z,96.98
2022-12-11T01:23:02.810Z,97.50
2022-12-11T01:24:02.803Z,97.30
2022-12-11T01:25:02.793Z,97.40
2022-12-11T01:26:02.791Z,97.40
2022-12-11T01:27:02.801Z,96.98
2022-12-11T01:28:02.774Z,97.34
2022-12-11T01:29:02.763Z,97.34
2022-12-11T01:30:02.758Z,97.40
2022-12-11T01:31:02.791Z,96.92
2022-12-11T01:32:02.743Z,97.34
2022-12-11T01:33:02.733Z,97.34
2022-12-11T01:34:02.731Z,97.30
2022-12-11T01:35:02.719Z,97.24
2022-12-11T01:36:02.711Z,97.44
2022-12-11T01:37:02.700Z,97.19
2022-12-11T01:38:02.699Z,97.44
2022-12-11T01:39:02.688Z,97.75
2022-12-11T01:40:02.684Z,97.61
2022-12-11T01:41:02.669Z,97.61
2022-12-11T01:42:02.665Z,97.71
2022-12-11T01:43:02.674Z,97.81
2022-12-11T01:44:02.650Z,97.30
2022-12-11T01:45:02.641Z,97.09
2022-12-11T01:46:02.672Z,96.88
2022-12-11T01:47:02.623Z,97.19
2022-12-11T01:48:02.621Z,96.98
2022-12-11T01:49:02.609Z,96.98
2022-12-11T01:50:02.601Z,97.19
2022-12-11T01:51:02.595Z,97.09
2022-12-11T01:52:02.592Z,96.88
2022-12-11T01:53:02.582Z,96.92
2022-12-11T01:54:02.573Z,96.30
2022-12-11T01:55:02.569Z,96.09
2022-12-11T01:56:02.558Z,97.03
2022-12-11T01:57:02.554Z,96.92
2022-12-11T01:58:02.541Z,97.24
2022-12-11T01:59:02.554Z,96.92
2022-12-11T02:00:02.531Z,97.34
2022-12-11T02:01:02.585Z,97.44
2022-12-11T02:02:02.549Z,97.03
2022-12-11T02:03:02.501Z,97.86
2022-12-11T02:04:02.494Z,97.75
2022-12-11T02:05:02.484Z,97.65
2022-12-11T02:06:02.481Z,97.97
2022-12-11T02:07:02.479Z,97.75
2022-12-11T02:08:02.918Z,97.34
2022-12-11T02:09:02.458Z,97.65
2022-12-11T02:10:02.450Z,97.92
2022-12-11T02:11:02.447Z,97.75
2022-12-11T02:12:02.434Z,97.97
2022-12-11T02:13:02.424Z,97.71
2022-12-11T02:14:02.422Z,97.86
2022-12-11T02:15:02.430Z,97.44
2022-12-11T02:16:02.510Z,97.24
2022-12-11T02:17:02.398Z,97.44
2022-12-11T02:18:02.385Z,97.24
2022-12-11T02:19:02.377Z,97.24
2022-12-11T02:20:02.373Z,97.44
2022-12-11T02:21:02.366Z,98.01
2022-12-11T02:22:02.360Z,97.59
2022-12-11T02:23:02.351Z,97.65
2022-12-11T02:24:02.337Z,97.49
2022-12-11T02:25:02.329Z,97.65
2022-12-11T02:26:02.324Z,97.70
2022-12-11T02:27:02.317Z,98.11
2022-12-11T02:28:02.310Z,97.44
2022-12-11T02:29:02.312Z,97.44
2022-12-11T02:30:02.313Z,98.07
2022-12-11T02:31:02.346Z,97.91
2022-12-11T02:32:02.277Z,97.70
2022-12-11T02:33:02.267Z,97.80
2022-12-11T02:34:02.262Z,97.49
2022-12-11T02:35:02.250Z,97.44
2022-12-11T02:36:02.245Z,97.28
2022-12-11T02:37:02.238Z,97.17
2022-12-11T02:38:02.233Z,97.28
2022-12-11T02:39:02.221Z,97.28
2022-12-11T02:40:02.217Z,96.97
2022-12-11T02:41:02.203Z,97.38
2022-12-11T02:42:02.200Z,97.49
2022-12-11T02:43:02.192Z,97.59
2022-12-11T02:44:02.186Z,97.59
2022-12-11T02:45:02.171Z,97.38
2022-12-11T02:46:02.214Z,97.49
2022-12-11T02:47:02.175Z,97.38
2022-12-11T02:48:02.155Z,97.38
2022-12-11T02:49:02.141Z,97.38
2022-12-11T02:50:02.136Z,97.49
2022-12-11T02:51:02.129Z,97.38
2022-12-11T02:52:02.127Z,97.28
2022-12-11T02:53:02.108Z,97.49
2022-12-11T02:54:02.108Z,97.49
2022-12-11T02:55:02.096Z,97.49
2022-12-11T02:56:02.091Z,97.55
2022-12-11T02:57:02.084Z,97.34
2022-12-11T02:58:02.073Z,97.28
2022-12-11T02:59:02.063Z,97.38
2022-12-11T03:00:02.056Z,97.07
2022-12-11T03:01:02.118Z,97.17
2022-12-11T03:02:02.106Z,96.66
2022-12-11T03:03:02.063Z,96.86
2022-12-11T03:04:02.034Z,96.92
2022-12-11T03:05:02.017Z,97.24
2022-12-11T03:06:02.008Z,97.34
2022-12-11T03:07:02.008Z,97.34
2022-12-11T03:08:02.069Z,97.34
2022-12-11T03:09:01.985Z,97.24
2022-12-11T03:10:01.981Z,97.34
2022-12-11T03:11:01.977Z,97.44
2022-12-11T03:12:01.968Z,97.86
2022-12-11T03:13:01.963Z,97.86
2022-12-11T03:14:01.946Z,97.81
2022-12-11T03:15:01.936Z,97.61
2022-12-11T03:16:01.990Z,97.81
2022-12-11T03:17:01.925Z,97.61
2022-12-11T03:18:01.914Z,97.40
2022-12-11T03:19:01.927Z,97.81
2022-12-11T03:20:01.901Z,97.04
2022-12-11T03:21:01.891Z,97.35
2022-12-11T03:22:01.885Z,97.35
2022-12-11T03:23:01.875Z,97.35
2022-12-11T03:24:02.826Z,97.14
2022-12-11T03:25:01.860Z,96.73
2022-12-11T03:26:01.864Z,97.25
2022-12-11T03:27:03.566Z,96.31
2022-12-11T03:28:01.841Z,96.42
2022-12-11T03:29:01.828Z,96.56
2022-12-11T03:30:01.833Z,96.31
2022-12-11T03:31:01.861Z,95.89
2022-12-11T03:32:01.811Z,95.89
2022-12-11T03:33:01.806Z,96.00
2022-12-11T03:34:01.791Z,95.58
2022-12-11T03:35:01.805Z,95.27
2022-12-11T03:36:01.777Z,95.58
2022-12-11T03:37:01.770Z,95.68
2022-12-11T03:38:01.762Z,95.48
2022-12-11T03:39:01.755Z,95.89
2022-12-11T03:40:01.747Z,96.00
2022-12-11T03:41:01.739Z,95.37
2022-12-11T03:42:01.730Z,95.17
2022-12-11T03:43:01.725Z,95.48
2022-12-11T03:44:01.717Z,95.27
2022-12-11T03:45:01.705Z,95.58
2022-12-11T03:46:01.778Z,95.48
2022-12-11T03:47:01.692Z,95.27
2022-12-11T03:48:01.691Z,95.37
2022-12-11T03:49:01.675Z,95.37
2022-12-11T03:50:01.676Z,95.27
2022-12-11T03:51:01.680Z,95.58
2022-12-11T03:52:01.659Z,95.48
2022-12-11T03:53:01.643Z,95.37
2022-12-11T03:54:01.640Z,95.37
2022-12-11T03:55:01.630Z,94.96
2022-12-11T03:56:01.628Z,94.96
2022-12-11T03:57:01.616Z,95.06
2022-12-11T03:58:01.636Z,95.06
2022-12-11T03:59:01.612Z,95.10
2022-12-11T04:00:01.595Z,94.85
2022-12-11T04:01:01.593Z,95.27
2022-12-11T04:02:01.608Z,95.31
2022-12-11T04:03:01.571Z,95.37
2022-12-11T04:04:01.613Z,95.37
2022-12-11T04:05:01.552Z,95.48
2022-12-11T04:06:01.547Z,95.31
2022-12-11T04:07:01.555Z,95.37
2022-12-11T04:08:01.594Z,95.58
2022-12-11T04:09:01.521Z,96.11
2022-12-11T04:10:01.517Z,95.89
2022-12-11T04:11:01.524Z,95.79
2022-12-11T04:12:01.501Z,95.79
2022-12-11T04:13:01.944Z,95.79
2022-12-11T04:14:01.485Z,96.00
2022-12-11T04:15:01.479Z,95.89
2022-12-11T04:16:01.497Z,95.89
2022-12-11T04:17:01.465Z,95.79
2022-12-11T04:18:01.461Z,95.89
2022-12-11T04:19:01.447Z,95.89
2022-12-11T04:20:01.440Z,95.85
2022-12-11T04:21:01.432Z,95.95
2022-12-11T04:22:01.427Z,96.11
2022-12-11T04:23:01.439Z,95.64
2022-12-11T04:24:01.410Z,95.75
2022-12-11T04:25:01.399Z,95.75
2022-12-11T04:26:01.394Z,95.85
2022-12-11T04:27:01.384Z,95.75
2022-12-11T04:28:01.383Z,95.95
2022-12-11T04:29:01.370Z,95.85
2022-12-11T04:30:01.365Z,95.75
2022-12-11T04:31:01.383Z,95.95
2022-12-11T04:32:01.350Z,95.95
2022-12-11T04:33:01.340Z,95.75
2022-12-11T04:34:01.334Z,95.85
2022-12-11T04:35:01.325Z,95.75
2022-12-11T04:36:01.320Z,95.85
2022-12-11T04:37:01.311Z,95.85
2022-12-11T04:38:01.303Z,95.75
2022-12-11T04:39:01.311Z,95.64
2022-12-11T04:40:01.289Z,95.43
2022-12-11T04:41:01.285Z,95.75
2022-12-11T04:42:01.280Z,95.75
2022-12-11T04:43:01.265Z,95.54
2022-12-11T04:44:01.261Z,95.85
2022-12-11T04:45:01.251Z,95.85
2022-12-11T04:46:01.325Z,95.89
2022-12-11T04:47:01.238Z,95.75
2022-12-11T04:48:01.235Z,95.95
2022-12-11T04:49:01.221Z,96.06
2022-12-11T04:50:01.216Z,95.68
2022-12-11T04:51:01.206Z,96.37
2022-12-11T04:52:01.201Z,96.06
2022-12-11T04:53:01.195Z,96.16
2022-12-11T04:54:01.188Z,96.06
2022-12-11T04:55:01.194Z,96.06
2022-12-11T04:56:01.172Z,95.79
2022-12-11T04:57:01.163Z,96.06
2022-12-11T04:58:01.154Z,96.16
2022-12-11T04:59:01.147Z,96.26
2022-12-11T05:00:01.141Z,96.16
2022-12-11T05:01:01.130Z,96.06
2022-12-11T05:02:01.203Z,95.85
2022-12-11T05:03:01.150Z,95.85
2022-12-11T05:04:01.113Z,96.06
2022-12-11T05:05:01.100Z,96.06
2022-12-11T05:06:01.102Z,95.85
2022-12-11T05:07:01.091Z,95.95
2022-12-11T05:08:01.153Z,95.85
2022-12-11T05:09:01.073Z,95.85
2022-12-11T05:10:01.061Z,96.06
2022-12-11T05:11:01.080Z,95.75
2022-12-11T05:12:01.049Z,95.75
2022-12-11T05:13:01.043Z,95.95
2022-12-11T05:14:01.036Z,95.75
2022-12-11T05:15:01.025Z,95.75
2022-12-11T05:16:01.072Z,96.06
2022-12-11T05:17:01.012Z,95.85
2022-12-11T05:18:01.006Z,95.85
2022-12-11T05:19:00.999Z,95.75
2022-12-11T05:20:00.994Z,95.54
2022-12-11T05:21:00.981Z,95.75
2022-12-11T05:22:00.972Z,95.75
2022-12-11T05:23:00.969Z,95.75
2022-12-11T05:24:00.965Z,95.43
2022-12-11T05:25:00.953Z,95.75
2022-12-11T05:26:00.955Z,95.85
2022-12-11T05:27:00.956Z,95.54
2022-12-11T05:28:00.929Z,95.43
2022-12-11T05:29:00.921Z,95.54
2022-12-11T05:30:00.915Z,95.23
2022-12-11T05:31:00.982Z,95.23
2022-12-11T05:32:00.902Z,95.54
2022-12-11T05:33:00.891Z,95.85
2022-12-11T05:34:00.885Z,95.54
2022-12-11T05:35:00.879Z,95.54
2022-12-11T05:36:00.872Z,95.54
2022-12-11T05:37:00.862Z,95.54
2022-12-11T05:38:00.854Z,95.54
2022-12-11T05:39:00.850Z,95.43
2022-12-11T05:40:00.844Z,95.23
2022-12-11T05:41:00.835Z,95.50
2022-12-11T05:42:00.823Z,95.54
2022-12-11T05:43:00.839Z,95.54
2022-12-11T05:44:00.808Z,95.33
2022-12-11T05:45:00.804Z,94.92
2022-12-11T05:46:00.797Z,94.29
2022-12-11T05:47:00.855Z,93.98
2022-12-11T05:48:00.778Z,93.56
2022-12-11T05:49:00.772Z,94.29
2022-12-11T05:50:00.764Z,93.98
2022-12-11T05:51:00.760Z,93.77
2022-12-11T05:52:00.750Z,94.29
2022-12-11T05:53:00.742Z,94.49
2022-12-11T05:54:00.734Z,94.60
2022-12-11T05:55:00.727Z,95.12
2022-12-11T05:56:00.718Z,95.02
2022-12-11T05:57:00.712Z,94.81
2022-12-11T05:58:00.705Z,94.92
2022-12-11T05:59:00.715Z,95.43
2022-12-11T06:00:00.693Z,95.33
2022-12-11T06:01:00.688Z,95.23
2022-12-11T06:02:00.837Z,95.43
2022-12-11T06:03:00.853Z,95.54
2022-12-11T06:04:00.673Z,94.70
2022-12-11T06:05:00.653Z,94.29
2022-12-11T06:06:00.645Z,94.29
2022-12-11T06:07:00.637Z,94.29
2022-12-11T06:08:00.638Z,93.66
2022-12-11T06:09:00.622Z,93.98
2022-12-11T06:10:00.613Z,93.98
2022-12-11T06:11:00.612Z,94.29
2022-12-11T06:12:00.603Z,94.29
2022-12-11T06:13:00.594Z,94.18
2022-12-11T06:14:00.588Z,94.49
2022-12-11T06:15:00.595Z,93.87
2022-12-11T06:16:00.607Z,93.66
2022-12-11T06:17:00.564Z,93.66
2022-12-11T06:18:01.004Z,94.08
2022-12-11T06:19:00.558Z,94.49
2022-12-11T06:20:00.540Z,94.39
2022-12-11T06:21:00.535Z,94.39
2022-12-11T06:22:00.532Z,94.39
2022-12-11T06:23:00.523Z,94.39
2022-12-11T06:24:00.513Z,94.70
2022-12-11T06:25:00.502Z,94.92
2022-12-11T06:26:00.493Z,94.39
2022-12-11T06:27:00.491Z,93.87
2022-12-11T06:28:00.480Z,94.18
2022-12-11T06:29:00.528Z,94.29
2022-12-11T06:30:00.464Z,94.29
2022-12-11T06:31:00.495Z,94.18
2022-12-11T06:32:00.479Z,94.39
2022-12-11T06:33:00.446Z,94.29
2022-12-11T06:34:00.436Z,94.35
2022-12-11T06:35:00.431Z,94.49
2022-12-11T06:36:00.422Z,94.29
2022-12-11T06:37:00.411Z,94.18
2022-12-11T06:38:00.408Z,94.29
2022-12-11T06:39:00.399Z,94.49
2022-12-11T06:40:00.399Z,94.49
2022-12-11T06:41:00.383Z,94.29
2022-12-11T06:42:00.375Z,94.81
2022-12-11T06:43:00.367Z,95.12
2022-12-11T06:44:00.359Z,95.02
2022-12-11T06:45:00.354Z,95.12
2022-12-11T06:46:03.881Z,95.02
2022-12-11T06:47:00.411Z,95.02
2022-12-11T06:48:00.329Z,95.02
2022-12-11T06:49:00.322Z,94.92
2022-12-11T06:50:00.320Z,95.12
2022-12-11T06:51:00.308Z,95.23
2022-12-11T06:52:00.299Z,95.23
2022-12-11T06:53:00.293Z,95.33
2022-12-11T06:54:00.285Z,95.12
2022-12-11T06:55:00.286Z,95.23
2022-12-11T06:56:00.269Z,95.23
2022-12-11T06:57:00.265Z,95.23
2022-12-11T06:58:00.252Z,95.23
2022-12-11T06:59:05.704Z,95.23
2022-12-11T07:00:00.251Z,95.54
2022-12-11T07:01:00.291Z,95.23
2022-12-11T07:02:00.291Z,95.23
2022-12-11T07:03:00.242Z,95.23
2022-12-11T07:04:00.210Z,95.02
2022-12-11T07:05:00.204Z,95.33
2022-12-11T07:06:00.208Z,95.29
2022-12-11T07:07:00.188Z,95.29
2022-12-11T07:08:00.268Z,95.54
2022-12-11T07:09:00.188Z,95.43
2022-12-11T07:10:07.342Z,95.23
2022-12-11T07:11:00.168Z,95.23
2022-12-11T07:12:00.149Z,95.33
2022-12-11T07:13:00.142Z,95.39
2022-12-11T07:14:00.133Z,95.50
2022-12-11T07:15:00.144Z,95.23
2022-12-11T07:16:00.117Z,95.18
2022-12-11T07:17:00.114Z,95.23
2022-12-11T07:18:00.354Z,95.23
2022-12-11T07:19:00.116Z,95.23
2022-12-11T07:20:00.087Z,95.23
2022-12-11T07:21:00.086Z,95.54
2022-12-11T07:22:00.076Z,95.23
2022-12-11T07:23:00.079Z,95.54
2022-12-11T07:24:00.080Z,95.33
2022-12-11T07:25:00.068Z,95.43
2022-12-11T07:26:00.044Z,95.54
2022-12-11T07:27:00.043Z,95.54
2022-12-11T07:28:00.030Z,95.60
2022-12-11T07:29:00.026Z,95.85
2022-12-11T07:30:00.013Z,95.23
2022-12-11T07:31:00.008Z,95.23
2022-12-11T07:32:00.163Z,95.54
2022-12-11T07:33:00.044Z,95.85
2022-12-11T07:33:59.984Z,95.95
2022-12-11T07:35:00.001Z,95.85
2022-12-11T07:35:59.972Z,95.95
2022-12-11T07:36:59.968Z,96.06
2022-12-11T07:37:59.954Z,96.26
2022-12-11T07:38:59.952Z,96.37
2022-12-11T07:39:59.940Z,96.06
2022-12-11T07:40:59.935Z,96.26
2022-12-11T07:41:59.925Z,96.06
2022-12-11T07:42:59.920Z,96.16
2022-12-11T07:43:59.911Z,96.69
2022-12-11T07:44:59.904Z,96.58
2022-12-11T07:45:59.919Z,96.79
2022-12-11T07:46:59.890Z,96.58
2022-12-11T07:47:59.881Z,96.06
2022-12-11T07:48:59.873Z,96.16
2022-12-11T07:49:59.865Z,96.16
2022-12-11T07:50:59.883Z,96.37
2022-12-11T07:51:59.856Z,96.37
2022-12-11T07:52:59.845Z,96.16
2022-12-11T07:53:59.836Z,96.16
2022-12-11T07:54:59.829Z,96.79
2022-12-11T07:55:59.832Z,96.58
2022-12-11T07:56:59.813Z,96.79
2022-12-11T07:57:59.806Z,97.10
2022-12-11T07:58:59.802Z,97.10
2022-12-11T07:59:59.790Z,97.20
2022-12-11T08:00:59.829Z,96.79
2022-12-11T08:01:59.816Z,96.79
2022-12-11T08:02:59.790Z,96.79
2022-12-11T08:03:59.768Z,97.20
2022-12-11T08:04:59.756Z,97.10
2022-12-11T08:05:59.751Z,96.79
2022-12-11T08:06:59.763Z,96.62
2022-12-11T08:07:59.783Z,96.79
2022-12-11T08:08:59.725Z,96.83
2022-12-11T08:09:59.719Z,96.73
2022-12-11T08:10:59.711Z,96.83
2022-12-11T08:11:59.702Z,97.00
2022-12-11T08:12:59.697Z,97.20
2022-12-11T08:13:59.686Z,96.89
2022-12-11T08:14:59.685Z,97.00
2022-12-11T08:15:59.671Z,96.58
2022-12-11T08:16:59.699Z,96.79
2022-12-11T08:17:59.658Z,97.00
2022-12-11T08:18:59.651Z,97.00
2022-12-11T08:19:59.641Z,96.79
2022-12-11T08:20:59.639Z,96.79
2022-12-11T08:21:59.630Z,96.69
2022-12-11T08:22:59.844Z,97.20
2022-12-11T08:23:59.613Z,97.10
2022-12-11T08:24:59.612Z,97.31
2022-12-11T08:25:59.600Z,97.31
2022-12-11T08:26:59.590Z,97.35
2022-12-11T08:27:59.583Z,96.69
2022-12-11T08:28:59.577Z,96.79
2022-12-11T08:29:59.573Z,96.69
2022-12-11T08:30:59.612Z,96.79
2022-12-11T08:31:59.556Z,96.58
2022-12-11T08:32:59.546Z,97.31
2022-12-11T08:33:59.538Z,96.89
2022-12-11T08:34:59.532Z,97.04
2022-12-11T08:35:59.522Z,97.20
2022-12-11T08:36:59.516Z,97.04
2022-12-11T08:37:59.509Z,97.10
2022-12-11T08:38:59.519Z,97.20
2022-12-11T08:39:59.500Z,97.31
2022-12-11T08:40:59.485Z,97.10
2022-12-11T08:41:59.477Z,97.20
2022-12-11T08:42:59.471Z,97.10
2022-12-11T08:43:59.464Z,97.31
2022-12-11T08:44:59.455Z,97.10
2022-12-11T08:45:59.491Z,96.79
2022-12-11T08:46:59.443Z,97.20
2022-12-11T08:47:59.433Z,97.00
2022-12-11T08:48:59.425Z,96.69
2022-12-11T08:49:59.416Z,97.20
2022-12-11T08:50:59.416Z,97.31
2022-12-11T08:51:59.406Z,97.20
2022-12-11T08:52:59.395Z,96.69
2022-12-11T08:53:59.393Z,96.58
2022-12-11T08:54:59.413Z,96.48
2022-12-11T08:55:59.377Z,96.64
2022-12-11T08:56:59.372Z,97.20
2022-12-11T08:57:59.362Z,96.75
2022-12-11T08:58:59.355Z,97.00
2022-12-11T08:59:59.347Z,97.10
2022-12-11T09:00:59.419Z,97.37
2022-12-11T09:01:59.325Z,97.06
2022-12-11T09:02:59.322Z,96.85
2022-12-11T09:03:59.316Z,96.85
2022-12-11T09:04:59.309Z,96.79
2022-12-11T09:05:59.298Z,96.89
2022-12-11T09:06:59.292Z,96.37
2022-12-11T09:07:59.408Z,96.16
2022-12-11T09:08:59.284Z,96.26
2022-12-11T09:09:59.269Z,95.79
2022-12-11T09:10:59.281Z,96.42
2022-12-11T09:11:59.255Z,96.37
2022-12-11T09:12:59.252Z,96.26
2022-12-11T09:14:03.754Z,95.95
2022-12-11T09:14:59.235Z,95.23
2022-12-11T09:15:59.337Z,95.54
2022-12-11T09:16:59.219Z,95.33
2022-12-11T09:17:59.208Z,94.92
2022-12-11T09:18:59.200Z,95.12
2022-12-11T09:19:59.235Z,95.12
2022-12-11T09:20:59.191Z,93.98
2022-12-11T09:21:59.182Z,93.98
2022-12-11T09:22:59.671Z,93.98
2022-12-11T09:23:59.165Z,93.98
2022-12-11T09:24:59.155Z,93.91
2022-12-11T09:25:59.148Z,94.29
2022-12-11T09:26:59.164Z,94.92
2022-12-11T09:27:59.135Z,95.02
2022-12-11T09:28:59.142Z,95.12
2022-12-11T09:29:59.122Z,95.02
2022-12-11T09:30:59.153Z,94.92
2022-12-11T09:31:59.109Z,95.43
2022-12-11T09:32:59.096Z,95.33
2022-12-11T09:33:59.090Z,95.23
2022-12-11T09:34:59.086Z,95.33
2022-12-11T09:35:59.079Z,95.33
2022-12-11T09:36:59.066Z,95.23
2022-12-11T09:37:59.062Z,95.33
2022-12-11T09:38:59.069Z,95.23
2022-12-11T09:40:02.618Z,95.23
2022-12-11T09:40:59.036Z,95.29
2022-12-11T09:41:59.040Z,95.29
2022-12-11T09:42:59.043Z,95.50
2022-12-11T09:43:59.016Z,95.39
2022-12-11T09:44:59.009Z,95.29
2022-12-11T09:45:59.142Z,95.50
2022-12-11T09:46:58.993Z,95.29
2022-12-11T09:47:58.987Z,95.18
2022-12-11T09:48:58.990Z,95.50
2022-12-11T09:49:58.971Z,95.29
2022-12-11T09:50:58.974Z,95.29
2022-12-11T09:51:58.955Z,95.08
2022-12-11T09:52:58.949Z,95.39
2022-12-11T09:53:58.941Z,95.08
2022-12-11T09:54:58.937Z,94.35
2022-12-11T09:55:58.928Z,93.93
2022-12-11T09:56:58.926Z,93.83
2022-12-11T09:57:58.993Z,93.93
2022-12-11T09:58:58.928Z,93.93
2022-12-11T10:00:04.538Z,93.83
2022-12-11T10:00:58.895Z,94.04
2022-12-11T10:01:58.882Z,93.93
2022-12-11T10:02:59.012Z,93.93
2022-12-11T10:03:58.875Z,94.04
2022-12-11T10:04:58.860Z,93.98
2022-12-11T10:06:04.265Z,93.62
2022-12-11T10:06:58.849Z,93.66
2022-12-11T10:07:58.895Z,94.14
2022-12-11T10:08:58.830Z,94.35
2022-12-11T10:09:58.825Z,94.45
2022-12-11T10:10:58.814Z,94.45
2022-12-11T10:11:58.808Z,93.93
2022-12-11T10:12:58.801Z,94.04
2022-12-11T10:13:58.804Z,94.14
2022-12-11T10:14:58.841Z,93.73
2022-12-11T10:15:58.900Z,93.93
2022-12-11T10:16:58.778Z,94.14
2022-12-11T10:18:04.602Z,93.62
2022-12-11T10:18:58.756Z,94.14
2022-12-11T10:19:58.748Z,94.66
2022-12-11T10:20:58.743Z,94.66
2022-12-11T10:21:58.732Z,94.66
2022-12-11T10:22:58.725Z,94.56
2022-12-11T10:23:58.719Z,94.35
2022-12-11T10:25:13.981Z,94.24
2022-12-11T10:25:58.705Z,94.31
2022-12-11T10:26:58.698Z,93.93
2022-12-11T10:27:58.690Z,93.52
2022-12-11T10:28:58.680Z,93.83
2022-12-11T10:29:58.674Z,93.73
2022-12-11T10:30:58.791Z,93.31
2022-12-11T10:31:58.664Z,93.93
2022-12-11T10:32:58.656Z,93.73
2022-12-11T10:33:58.645Z,93.62
2022-12-11T10:34:58.639Z,93.73
2022-12-11T10:35:58.628Z,93.83
2022-12-11T10:37:00.570Z,93.73
2022-12-11T10:37:58.614Z,94.10
2022-12-11T10:38:58.605Z,93.52
2022-12-11T10:39:58.601Z,94.14
2022-12-11T10:40:58.602Z,94.04
2022-12-11T10:41:58.587Z,93.89
2022-12-11T10:42:58.574Z,93.73
2022-12-11T10:43:58.571Z,93.20
2022-12-11T10:44:58.562Z,92.99
2022-12-11T10:45:58.921Z,92.37
2022-12-11T10:46:58.565Z,92.47
2022-12-11T10:47:58.543Z,92.47
2022-12-11T10:48:58.540Z,93.31
2022-12-11T10:49:58.530Z,92.99
2022-12-11T10:50:58.517Z,93.10
2022-12-11T10:51:58.511Z,93.31
2022-12-11T10:52:58.501Z,93.62
2022-12-11T10:54:02.609Z,93.62
2022-12-11T10:54:58.490Z,93.20
2022-12-11T10:55:58.485Z,92.89
2022-12-11T10:56:58.473Z,93.62
2022-12-11T10:57:58.465Z,93.20
2022-12-11T10:58:58.459Z,93.20
2022-12-11T10:59:58.454Z,94.04
2022-12-11T11:00:58.442Z,93.68
2022-12-11T11:01:58.470Z,93.20
2022-12-11T11:02:58.574Z,93.73
2022-12-11T11:03:58.424Z,93.68
2022-12-11T11:04:58.417Z,93.16
2022-12-11T11:05:58.408Z,93.68
2022-12-11T11:06:58.399Z,93.79
2022-12-11T11:07:58.419Z,93.37
2022-12-11T11:08:58.382Z,93.58
2022-12-11T11:09:58.378Z,93.37
2022-12-11T11:10:58.369Z,93.16
2022-12-11T11:12:00.021Z,93.16
2022-12-11T11:12:58.352Z,92.74
2022-12-11T11:13:58.347Z,92.43
2022-12-11T11:14:58.337Z,92.33
2022-12-11T11:15:58.374Z,91.71
2022-12-11T11:16:58.326Z,92.12
2022-12-11T11:17:58.319Z,92.22
2022-12-11T11:18:58.329Z,92.02
2022-12-11T11:19:58.307Z,92.12
2022-12-11T11:20:58.299Z,92.47
2022-12-11T11:21:58.289Z,92.47
2022-12-11T11:22:58.281Z,92.27
2022-12-11T11:23:58.274Z,92.16
2022-12-11T11:24:58.266Z,92.27
2022-12-11T11:25:58.260Z,92.47
2022-12-11T11:27:13.122Z,92.06
2022-12-11T11:27:58.247Z,92.58
2022-12-11T11:28:58.244Z,92.99
2022-12-11T11:29:58.230Z,93.73
2022-12-11T11:30:58.269Z,93.31
2022-12-11T11:31:58.216Z,94.08
2022-12-11T11:32:58.211Z,93.62
2022-12-11T11:33:58.205Z,93.46
2022-12-11T11:34:58.209Z,94.08
2022-12-11T11:35:58.187Z,94.08
2022-12-11T11:36:58.179Z,94.24
2022-12-11T11:37:58.172Z,94.04
2022-12-11T11:38:58.164Z,93.83
2022-12-11T11:39:58.155Z,94.24
2022-12-11T11:41:04.256Z,93.73
2022-12-11T11:41:58.152Z,93.83
2022-12-11T11:42:58.138Z,93.93
2022-12-11T11:43:58.130Z,93.31
2022-12-11T11:44:58.118Z,93.73
2022-12-11T11:45:58.125Z,93.93
2022-12-11T11:46:58.131Z,93.20
2022-12-11T11:47:58.099Z,93.58
2022-12-11T11:48:58.088Z,92.43
2022-12-11T11:49:58.079Z,92.47
2022-12-11T11:50:58.105Z,92.47
2022-12-11T11:51:58.065Z,92.47
2022-12-11T11:52:58.056Z,92.68
2022-12-11T11:53:58.052Z,92.47
2022-12-11T11:54:58.051Z,92.68
2022-12-11T11:55:58.036Z,92.99
2022-12-11T11:56:58.024Z,93.62
2022-12-11T11:57:58.024Z,93.27
2022-12-11T11:58:58.019Z,93.27
2022-12-11T11:59:58.007Z,93.48
2022-12-11T12:00:57.998Z,93.52
2022-12-11T12:01:57.996Z,93.73
2022-12-11T12:02:58.028Z,93.10
2022-12-11T12:03:57.983Z,93.89
2022-12-11T12:04:57.967Z,93.58
2022-12-11T12:05:57.965Z,93.79
2022-12-11T12:06:57.970Z,93.79
2022-12-11T12:07:58.023Z,93.16
2022-12-11T12:08:57.938Z,93.68
2022-12-11T12:09:57.972Z,93.89
2022-12-11T12:10:57.929Z,93.05
2022-12-11T12:11:57.918Z,92.85
2022-12-11T12:12:57.906Z,92.33
2022-12-11T12:13:57.901Z,92.22
2022-12-11T12:14:57.893Z,92.33
2022-12-11T12:15:58.017Z,92.33
2022-12-11T12:16:57.962Z,92.43
2022-12-11T12:17:57.873Z,92.12
2022-12-11T12:18:57.866Z,92.64
2022-12-11T12:19:57.860Z,92.33
2022-12-11T12:20:57.849Z,92.85
2022-12-11T12:21:57.843Z,92.58
2022-12-11T12:22:57.851Z,92.54
2022-12-11T12:23:57.829Z,92.43
2022-12-11T12:24:57.820Z,92.58
2022-12-11T12:25:57.818Z,92.47
2022-12-11T12:26:57.807Z,92.54
2022-12-11T12:27:57.799Z,92.43
2022-12-11T12:28:57.790Z,92.47
2022-12-11T12:29:57.785Z,92.47
2022-12-11T12:30:57.775Z,92.37
2022-12-11T12:31:57.867Z,92.79
2022-12-11T12:32:57.760Z,92.79
2022-12-11T12:33:57.757Z,93.20
2022-12-11T12:34:57.749Z,93.66
2022-12-11T12:36:02.067Z,93.73
2022-12-11T12:36:57.744Z,93.77
2022-12-11T12:37:57.724Z,93.77
2022-12-11T12:38:57.732Z,93.77
2022-12-11T12:39:57.710Z,93.41
2022-12-11T12:40:57.703Z,93.77
2022-12-11T12:42:01.262Z,93.24
2022-12-11T12:42:57.685Z,93.20
2022-12-11T12:43:57.717Z,94.04
2022-12-11T12:44:57.670Z,93.93
2022-12-11T12:45:57.697Z,93.93
2022-12-11T12:46:57.656Z,93.20
2022-12-11T12:47:57.652Z,93.73
2022-12-11T12:48:57.641Z,93.83
2022-12-11T12:49:57.635Z,93.62
2022-12-11T12:50:57.628Z,93.62
2022-12-11T12:51:57.625Z,93.62